createdAt,value
2022-11-09T00:01:04.708Z,18.58
2022-11-09T00:03:32.267Z,15.30
2022-11-09T00:06:00.551Z,17.48
2022-11-09T00:08:28.850Z,17.17
2022-11-09T00:11:02.987Z,17.40
2022-11-09T00:13:30.510Z,16.00
2022-11-09T00:16:02.259Z,19.00
2022-11-09T00:18:30.069Z,18.25
2022-11-09T00:20:58.405Z,16.58
2022-11-09T00:23:26.028Z,18.90
2022-11-09T00:25:53.478Z,21.33
2022-11-09T00:28:21.161Z,19.15
2022-11-09T00:30:48.630Z,16.00
2022-11-09T00:33:17.306Z,16.38
2022-11-09T00:35:44.929Z,18.10
2022-11-09T00:38:12.523Z,16.20
2022-11-09T00:40:39.932Z,19.30
2022-11-09T00:43:07.674Z,17.13
2022-11-09T00:45:35.203Z,17.33
2022-11-09T00:48:03.867Z,21.90
2022-11-09T00:50:31.303Z,18.58
2022-11-09T00:52:58.800Z,19.63
2022-11-09T00:55:27.037Z,19.95
2022-11-09T00:57:55.028Z,19.38
2022-11-09T01:00:24.819Z,19.70
2022-11-09T01:02:53.924Z,18.25
2022-11-09T01:05:21.446Z,17.33
2022-11-09T01:07:50.576Z,20.23
2022-11-09T01:10:18.149Z,18.83
2022-11-09T01:12:47.295Z,17.88
2022-11-09T01:15:15.849Z,23.00
2022-11-09T01:17:43.428Z,19.17
2022-11-09T01:20:11.651Z,20.85
2022-11-09T01:22:39.290Z,20.63
2022-11-09T01:25:07.096Z,21.17
2022-11-09T01:27:35.354Z,21.83
2022-11-09T01:30:06.696Z,21.45
2022-11-09T01:32:34.259Z,21.77
2022-11-09T01:35:01.786Z,24.83
2022-11-09T01:37:31.464Z,18.05
2022-11-09T01:39:58.994Z,19.90
2022-11-09T01:42:26.706Z,21.20
2022-11-09T01:45:15.602Z,21.45
2022-11-09T01:47:46.300Z,20.98
2022-11-09T01:50:18.765Z,21.42
2022-11-09T01:52:49.128Z,21.73
2022-11-09T01:55:21.947Z,19.48
2022-11-09T01:58:02.859Z,21.73
2022-11-09T02:00:32.518Z,21.02
2022-11-09T02:03:28.169Z,22.08
2022-11-09T02:05:56.523Z,21.00
2022-11-09T02:08:26.422Z,18.70
2022-11-09T02:11:01.765Z,23.27
2022-11-09T02:13:30.679Z,19.60
2022-11-09T02:16:18.994Z,21.45
2022-11-09T02:18:55.134Z,21.10
2022-11-09T02:21:28.427Z,21.27
2022-11-09T02:23:56.507Z,19.27
2022-11-09T02:26:33.916Z,19.60
2022-11-09T02:29:05.418Z,20.30
2022-11-09T02:31:42.409Z,21.80
2022-11-09T02:34:14.782Z,19.30
2022-11-09T02:36:43.701Z,17.95
2022-11-09T02:39:19.675Z,22.23
2022-11-09T02:41:54.485Z,17.48
2022-11-09T02:44:24.004Z,15.25
2022-11-09T02:46:51.920Z,17.50
2022-11-09T02:49:19.926Z,17.38
2022-11-09T02:51:47.501Z,15.93
2022-11-09T02:54:15.048Z,14.68
2022-11-09T02:56:42.628Z,13.32
2022-11-09T02:59:10.116Z,14.57
2022-11-09T03:01:38.541Z,15.32
2022-11-09T03:04:06.175Z,13.73
2022-11-09T03:06:35.672Z,13.32
2022-11-09T03:09:11.175Z,14.30
2022-11-09T03:11:40.747Z,12.75
2022-11-09T03:14:10.326Z,13.52
2022-11-09T03:16:40.273Z,14.90
2022-11-09T03:19:07.852Z,11.52
2022-11-09T03:21:35.578Z,13.95
2022-11-09T03:24:03.282Z,12.57
2022-11-09T03:26:30.737Z,14.95
2022-11-09T03:28:58.973Z,15.35
2022-11-09T03:31:26.451Z,13.30
2022-11-09T03:33:55.750Z,12.05
2022-11-09T03:36:23.338Z,12.57
2022-11-09T03:38:51.290Z,13.40
2022-11-09T03:41:18.984Z,12.60
2022-11-09T03:43:46.479Z,15.55
2022-11-09T03:46:14.111Z,16.75
2022-11-09T03:48:41.520Z,12.63
2022-11-09T03:51:08.951Z,12.23
2022-11-09T03:53:36.367Z,12.77
2022-11-09T03:56:03.799Z,13.45
2022-11-09T03:58:31.351Z,11.23
2022-11-09T04:00:58.738Z,12.80
2022-11-09T04:03:26.166Z,13.68
2022-11-09T04:05:53.641Z,14.30
2022-11-09T04:08:21.046Z,14.07
2022-11-09T04:10:48.921Z,13.48
2022-11-09T04:13:16.553Z,13.32
2022-11-09T04:15:44.119Z,16.23
2022-11-09T04:18:14.464Z,10.70
2022-11-09T04:20:42.544Z,12.80
2022-11-09T04:23:12.503Z,13.43
2022-11-09T04:25:41.159Z,12.00
2022-11-09T04:28:12.151Z,15.38
2022-11-09T04:30:39.744Z,12.55
2022-11-09T04:33:07.169Z,15.70
2022-11-09T04:35:34.972Z,11.07
2022-11-09T04:38:07.890Z,11.30
2022-11-09T04:40:36.208Z,13.38
2022-11-09T04:43:05.254Z,14.38
2022-11-09T04:45:34.358Z,12.32
2022-11-09T04:48:04.542Z,13.45
2022-11-09T04:50:33.013Z,11.20
2022-11-09T04:53:12.324Z,15.40
2022-11-09T04:55:40.928Z,16.20
2022-11-09T04:58:09.035Z,12.32
2022-11-09T05:00:37.060Z,11.20
2022-11-09T05:03:06.546Z,14.23
2022-11-09T05:05:35.677Z,13.40
2022-11-09T05:08:04.525Z,13.68
2022-11-09T05:10:32.537Z,12.02
2022-11-09T05:13:11.648Z,13.35
2022-11-09T05:15:40.023Z,12.02
2022-11-09T05:18:08.669Z,12.02
2022-11-09T05:20:37.007Z,10.73
2022-11-09T05:23:26.378Z,15.52
2022-11-09T05:25:53.783Z,15.98
2022-11-09T05:28:21.233Z,13.48
2022-11-09T05:30:48.704Z,12.63
2022-11-09T05:33:17.472Z,14.07
2022-11-09T05:35:45.141Z,14.57
2022-11-09T05:38:12.563Z,10.25
2022-11-09T05:40:40.092Z,9.55
2022-11-09T05:43:07.563Z,10.88
2022-11-09T05:45:43.678Z,13.70
2022-11-09T05:48:14.042Z,12.18
2022-11-09T05:50:42.633Z,11.27
2022-11-09T05:53:16.442Z,12.60
2022-11-09T05:55:43.975Z,11.80
2022-11-09T05:58:11.575Z,13.35
2022-11-09T06:00:39.048Z,13.45
2022-11-09T06:03:08.763Z,10.43
2022-11-09T06:05:41.135Z,12.40
2022-11-09T06:08:11.570Z,12.45
2022-11-09T06:10:39.907Z,10.55
2022-11-09T06:13:07.902Z,12.43
2022-11-09T06:15:35.414Z,10.75
2022-11-09T06:18:03.030Z,12.68
2022-11-09T06:20:30.687Z,13.20
2022-11-09T06:23:04.182Z,13.20
2022-11-09T06:25:33.309Z,11.48
2022-11-09T06:28:01.507Z,12.77
2022-11-09T06:30:29.556Z,12.75
2022-11-09T06:33:01.889Z,11.82
2022-11-09T06:35:30.130Z,14.35
2022-11-09T06:38:01.193Z,13.68
2022-11-09T06:40:29.189Z,15.25
2022-11-09T06:42:58.929Z,16.63
2022-11-09T06:45:28.631Z,13.73
2022-11-09T06:47:58.088Z,12.30
2022-11-09T06:50:27.292Z,11.82
2022-11-09T06:52:58.976Z,12.38
2022-11-09T06:55:30.929Z,12.70
2022-11-09T06:57:58.959Z,13.27
2022-11-09T07:00:27.889Z,13.90
2022-11-09T07:02:55.456Z,12.00
2022-11-09T07:05:23.427Z,13.45
2022-11-09T07:07:51.090Z,12.90
2022-11-09T07:10:19.307Z,13.52
2022-11-09T07:12:46.865Z,10.02
2022-11-09T07:15:14.440Z,10.73
2022-11-09T07:17:42.245Z,13.55
2022-11-09T07:20:11.033Z,11.35
2022-11-09T07:22:40.034Z,10.23
2022-11-09T07:25:09.427Z,10.82
2022-11-09T07:27:37.285Z,12.38
2022-11-09T07:30:05.472Z,8.25
2022-11-09T07:35:21.878Z,9.90
2022-11-09T07:37:49.334Z,11.68
2022-11-09T07:40:16.902Z,12.93
2022-11-09T07:42:44.512Z,11.02
2022-11-09T07:45:12.067Z,11.82
2022-11-09T07:47:39.537Z,10.82
2022-11-09T07:50:07.145Z,15.60
2022-11-09T07:52:34.867Z,10.05
2022-11-09T07:55:02.451Z,13.20
2022-11-09T07:57:31.301Z,12.60
2022-11-09T07:59:59.323Z,10.55
2022-11-09T08:02:26.919Z,12.20
2022-11-09T08:04:54.666Z,10.32
2022-11-09T08:07:23.742Z,12.15
2022-11-09T08:09:51.439Z,10.60
2022-11-09T08:12:19.134Z,12.73
2022-11-09T08:14:46.600Z,12.32
2022-11-09T08:17:14.160Z,12.70
2022-11-09T08:19:41.660Z,12.85
2022-11-09T08:22:09.356Z,14.02
2022-11-09T08:24:36.825Z,12.18
2022-11-09T08:27:04.456Z,11.60
2022-11-09T08:29:33.117Z,12.68
2022-11-09T08:32:00.584Z,13.88
2022-11-09T08:34:28.642Z,12.60
2022-11-09T08:37:00.149Z,8.88
2022-11-09T08:39:27.749Z,8.50
2022-11-09T08:41:55.813Z,10.20
2022-11-09T08:44:23.647Z,8.57
2022-11-09T08:46:51.155Z,9.43
2022-11-09T08:49:18.563Z,9.25
2022-11-09T08:51:46.014Z,8.73
2022-11-09T08:54:15.237Z,9.23
2022-11-09T08:56:42.725Z,9.75
2022-11-09T08:59:10.135Z,11.85
2022-11-09T09:01:37.759Z,13.20
2022-11-09T09:04:05.278Z,15.07
2022-11-09T09:06:32.733Z,11.38
2022-11-09T09:09:00.348Z,12.00
2022-11-09T09:11:29.378Z,10.70
2022-11-09T09:13:56.821Z,11.65
2022-11-09T09:16:24.328Z,9.77
2022-11-09T09:18:51.845Z,10.80
2022-11-09T09:21:19.267Z,10.10
2022-11-09T09:23:50.030Z,9.32
2022-11-09T09:26:17.843Z,10.70
2022-11-09T09:28:45.356Z,11.32
2022-11-09T09:31:17.273Z,13.27
2022-11-09T09:33:47.748Z,9.27
2022-11-09T09:36:24.665Z,11.98
2022-11-09T09:38:53.996Z,8.73
2022-11-09T09:41:40.172Z,11.35
2022-11-09T09:44:45.416Z,10.55
2022-11-09T09:47:20.155Z,8.10
2022-11-09T09:50:03.147Z,9.10
2022-11-09T09:53:25.490Z,8.30
2022-11-09T09:56:12.823Z,12.63
2022-11-09T09:58:49.801Z,14.27
2022-11-09T10:01:24.072Z,11.15
2022-11-09T10:03:51.643Z,10.02
2022-11-09T10:06:30.820Z,11.32
2022-11-09T10:09:04.364Z,11.85
2022-11-09T10:12:02.657Z,11.15
2022-11-09T10:14:30.126Z,11.57
2022-11-09T10:17:16.143Z,12.40
2022-11-09T10:20:11.369Z,13.05
2022-11-09T10:22:56.937Z,12.07
2022-11-09T10:25:57.634Z,14.43
2022-11-09T10:28:18.015Z,10.93
2022-11-09T10:30:46.451Z,11.68
2022-11-09T10:33:21.449Z,10.18
2022-11-09T10:38:40.496Z,9.10
2022-11-09T10:41:34.665Z,9.82
2022-11-09T10:44:21.144Z,11.43
2022-11-09T10:47:09.660Z,13.18
2022-11-09T10:50:22.748Z,10.05
2022-11-09T10:53:16.193Z,10.15
2022-11-09T10:56:21.253Z,10.63
2022-11-09T10:59:32.522Z,11.68
2022-11-09T11:02:24.528Z,13.43
2022-11-09T11:05:10.452Z,11.75
2022-11-09T11:07:56.980Z,11.73
2022-11-09T11:10:43.809Z,10.70
2022-11-09T11:13:30.184Z,12.73
2022-11-09T11:16:32.424Z,10.70
2022-11-09T11:19:38.561Z,12.27
2022-11-09T11:22:27.573Z,9.43
2022-11-09T11:25:20.385Z,11.32
2022-11-09T11:28:26.649Z,9.00
2022-11-09T11:31:16.988Z,10.68
2022-11-09T11:34:03.657Z,9.18
2022-11-09T11:37:09.982Z,9.10
2022-11-09T11:40:17.191Z,9.57
2022-11-09T11:43:03.066Z,10.38
2022-11-09T11:45:54.461Z,9.13
2022-11-09T11:48:57.761Z,9.10
2022-11-09T11:51:56.212Z,9.43
2022-11-09T11:55:23.923Z,9.20
2022-11-09T11:58:57.890Z,8.88
2022-11-09T12:01:59.900Z,9.45
2022-11-09T12:05:26.230Z,12.00
2022-11-09T12:08:51.939Z,6.45
2022-11-09T12:11:59.510Z,8.02
2022-11-09T12:14:59.701Z,11.20
2022-11-09T12:18:06.908Z,6.05
2022-11-09T12:21:15.816Z,5.70
2022-11-09T12:24:49.696Z,7.82
2022-11-09T12:28:03.395Z,5.30
2022-11-09T12:31:06.034Z,7.43
2022-11-09T12:34:02.350Z,9.93
2022-11-09T12:36:55.901Z,6.38
2022-11-09T12:39:47.335Z,7.07
2022-11-09T12:42:37.402Z,5.18
2022-11-09T12:45:39.050Z,5.93
2022-11-09T12:48:29.465Z,7.32
2022-11-09T12:51:16.697Z,10.85
2022-11-09T12:54:11.528Z,7.40
2022-11-09T12:57:01.354Z,6.38
2022-11-09T12:59:50.415Z,5.68
2022-11-09T13:02:40.668Z,7.63
2022-11-09T13:05:31.933Z,5.78
2022-11-09T13:08:23.995Z,6.35
2022-11-09T13:11:37.526Z,7.45
2022-11-09T13:14:23.755Z,10.10
2022-11-09T13:17:25.052Z,8.20
2022-11-09T13:24:03.704Z,7.70
2022-11-09T13:26:50.604Z,8.65
2022-11-09T13:29:39.667Z,10.90
2022-11-09T13:32:35.103Z,10.60
2022-11-09T13:35:39.864Z,10.70
2022-11-09T13:38:29.139Z,8.73
2022-11-09T13:41:30.256Z,9.10
2022-11-09T13:44:18.949Z,8.75
2022-11-09T13:47:05.255Z,8.38
2022-11-09T13:49:52.172Z,8.50
2022-11-09T13:52:49.426Z,9.25
2022-11-09T13:55:41.398Z,9.48
2022-11-09T13:58:36.757Z,8.98
2022-11-09T14:01:27.934Z,11.00
2022-11-09T14:04:28.494Z,7.53
2022-11-09T14:07:24.478Z,10.38
2022-11-09T14:10:36.330Z,9.48
2022-11-09T14:14:08.208Z,8.65
2022-11-09T14:17:09.225Z,10.20
2022-11-09T14:20:10.653Z,10.32
2022-11-09T14:22:57.769Z,8.30
2022-11-09T14:25:44.426Z,10.13
2022-11-09T14:28:34.575Z,8.50
2022-11-09T14:31:28.500Z,10.07
2022-11-09T14:34:17.692Z,9.00
2022-11-09T14:37:06.698Z,9.93
2022-11-09T14:39:54.263Z,10.65
2022-11-09T14:42:45.858Z,9.35
2022-11-09T14:45:32.232Z,8.40
2022-11-09T14:48:20.675Z,11.52
2022-11-09T14:51:12.285Z,11.70
2022-11-09T14:54:00.772Z,12.10
2022-11-09T14:56:46.947Z,13.05
2022-11-09T14:59:36.207Z,11.30
2022-11-09T15:02:23.772Z,13.77
2022-11-09T15:05:41.138Z,12.25
2022-11-09T15:08:27.166Z,13.38
2022-11-09T15:11:13.279Z,13.93
2022-11-09T15:14:00.474Z,16.30
2022-11-09T15:16:48.736Z,14.90
2022-11-09T15:19:47.634Z,12.95
2022-11-09T15:22:48.601Z,15.32
2022-11-09T15:25:34.552Z,13.35
2022-11-09T15:28:22.765Z,13.23
2022-11-09T15:31:16.251Z,13.48
2022-11-09T15:34:02.535Z,15.00
2022-11-09T15:36:54.988Z,15.65
2022-11-09T15:39:40.922Z,17.40
2022-11-09T15:42:27.419Z,15.10
2022-11-09T15:45:16.200Z,14.52
2022-11-09T15:48:02.223Z,15.80
2022-11-09T15:50:48.908Z,14.90
2022-11-09T15:53:35.117Z,17.15
2022-11-09T15:56:24.436Z,13.50
2022-11-09T15:59:20.754Z,15.13
2022-11-09T16:02:06.806Z,17.75
2022-11-09T16:04:52.938Z,17.42
2022-11-09T16:07:51.532Z,20.85
2022-11-09T16:13:26.476Z,12.07
2022-11-09T16:16:14.488Z,17.20
2022-11-09T16:19:01.356Z,15.07
2022-11-09T16:21:48.008Z,16.27
2022-11-09T16:24:35.016Z,16.77
2022-11-09T16:27:48.605Z,12.32
2022-11-09T16:30:28.814Z,19.27
2022-11-09T16:33:14.822Z,19.80
2022-11-09T16:36:04.447Z,15.75
2022-11-09T16:38:53.304Z,22.05
2022-11-09T16:41:42.072Z,17.23
2022-11-09T16:44:36.212Z,12.57
2022-11-09T16:47:22.588Z,13.95
2022-11-09T16:50:09.325Z,16.40
2022-11-09T16:52:55.213Z,15.68
2022-11-09T16:55:41.764Z,13.40
2022-11-09T16:58:28.124Z,15.10
2022-11-09T17:01:17.548Z,18.88
2022-11-09T17:04:05.452Z,12.98
2022-11-09T17:06:51.948Z,14.10
2022-11-09T17:09:38.147Z,15.73
2022-11-09T17:12:24.312Z,12.68
2022-11-09T17:15:11.088Z,11.80
2022-11-09T17:17:57.107Z,15.98
2022-11-09T17:20:50.782Z,12.60
2022-11-09T17:23:38.002Z,12.10
2022-11-09T17:26:25.471Z,12.85
2022-11-09T17:29:12.765Z,14.48
2022-11-09T17:31:58.836Z,15.87
2022-11-09T17:34:44.812Z,12.30
2022-11-09T17:37:33.671Z,19.98
2022-11-09T17:40:21.441Z,13.70
2022-11-09T17:43:07.537Z,13.70
2022-11-09T17:45:53.544Z,16.95
2022-11-09T17:48:41.436Z,11.73
2022-11-09T17:51:30.168Z,10.35
2022-11-09T17:54:16.356Z,13.18
2022-11-09T17:57:02.580Z,12.85
2022-11-09T17:59:57.213Z,12.85
2022-11-09T18:02:44.170Z,9.77
2022-11-09T18:05:30.527Z,9.73
2022-11-09T18:08:16.574Z,12.15
2022-11-09T18:11:02.583Z,10.77
2022-11-09T18:13:49.876Z,10.68
2022-11-09T18:16:35.910Z,15.27
2022-11-09T18:19:22.006Z,8.32
2022-11-09T18:22:12.457Z,9.52
2022-11-09T18:24:58.947Z,11.13
2022-11-09T18:27:44.932Z,9.60
2022-11-09T18:30:31.524Z,8.63
2022-11-09T18:33:17.715Z,9.90
2022-11-09T18:36:12.291Z,11.25
2022-11-09T18:38:58.427Z,11.85
2022-11-09T18:41:44.169Z,8.63
2022-11-09T18:44:31.040Z,9.50
2022-11-09T18:47:17.461Z,9.15
2022-11-09T18:50:03.576Z,11.50
2022-11-09T18:52:49.632Z,11.13
2022-11-09T18:55:35.768Z,9.23
2022-11-09T18:58:22.271Z,11.45
2022-11-09T19:01:08.793Z,9.98
2022-11-09T19:03:59.215Z,9.68
2022-11-09T19:06:46.394Z,9.75
2022-11-09T19:09:37.263Z,9.37
2022-11-09T19:12:24.349Z,9.07
2022-11-09T19:15:10.640Z,8.13
2022-11-09T19:17:56.587Z,9.88
2022-11-09T19:20:42.932Z,11.73
2022-11-09T19:23:34.084Z,8.10
2022-11-09T19:26:23.766Z,12.93
2022-11-09T19:29:11.924Z,11.50
2022-11-09T19:31:58.020Z,10.10
2022-11-09T19:34:46.305Z,8.13
2022-11-09T19:40:17.866Z,9.20
2022-11-09T19:43:03.975Z,8.45
2022-11-09T19:45:50.154Z,10.38
2022-11-09T19:48:36.409Z,9.88
2022-11-09T19:51:23.529Z,10.38
2022-11-09T19:54:11.815Z,9.00
2022-11-09T19:57:00.102Z,8.48
2022-11-09T19:59:46.356Z,8.70
2022-11-09T20:02:32.849Z,12.10
2022-11-09T20:05:19.079Z,9.50
2022-11-09T20:08:05.501Z,8.43
2022-11-09T20:10:52.429Z,8.20
2022-11-09T20:13:40.137Z,8.80
2022-11-09T20:16:27.017Z,11.25
2022-11-09T20:19:14.323Z,10.17
2022-11-09T20:22:00.716Z,9.10
2022-11-09T20:24:46.621Z,7.90
2022-11-09T20:27:33.116Z,9.02
2022-11-09T20:30:19.408Z,8.75
2022-11-09T20:33:05.940Z,9.27
2022-11-09T20:35:53.648Z,9.70
2022-11-09T20:41:25.944Z,7.22
2022-11-09T20:44:12.107Z,9.25
2022-11-09T20:46:58.032Z,8.27
2022-11-09T20:49:44.436Z,8.32
2022-11-09T20:52:30.847Z,9.52
2022-11-09T20:55:16.812Z,9.52
2022-11-09T20:58:03.054Z,9.43
2022-11-09T21:00:58.923Z,11.00
2022-11-09T21:03:46.032Z,7.97
2022-11-09T21:06:32.372Z,9.05
2022-11-09T21:09:18.446Z,9.77
2022-11-09T21:12:24.653Z,10.75
2022-11-09T21:15:11.320Z,10.52
2022-11-09T21:17:56.983Z,6.93
2022-11-09T21:20:43.423Z,12.10
2022-11-09T21:23:48.342Z,8.85
2022-11-09T21:26:53.523Z,9.52
2022-11-09T21:29:51.965Z,8.20
2022-11-09T21:32:38.693Z,8.23
2022-11-09T21:35:25.080Z,11.32
2022-11-09T21:38:11.098Z,8.82
2022-11-09T21:41:24.699Z,7.90
2022-11-09T21:44:12.362Z,11.13
2022-11-09T21:46:59.148Z,9.95
2022-11-09T21:49:45.156Z,8.57
2022-11-09T21:52:31.579Z,10.20
2022-11-09T21:55:17.899Z,11.27
2022-11-09T21:58:04.148Z,8.68
2022-11-09T22:00:50.385Z,8.75
2022-11-09T22:03:36.688Z,7.57
2022-11-09T22:06:23.171Z,9.05
2022-11-09T22:09:15.285Z,11.95
2022-11-09T22:12:19.793Z,11.73
2022-11-09T22:15:24.646Z,9.00
2022-11-09T22:18:30.752Z,8.50
2022-11-09T22:21:16.424Z,13.50
2022-11-09T22:24:03.119Z,11.75
2022-11-09T22:26:48.981Z,7.45
2022-11-09T22:29:35.311Z,9.18
2022-11-09T22:32:22.128Z,9.38
2022-11-09T22:35:08.986Z,8.25
2022-11-09T22:37:55.243Z,11.75
2022-11-09T22:40:41.534Z,8.48
2022-11-09T22:43:28.792Z,11.20
2022-11-09T22:46:17.283Z,7.60
2022-11-09T22:49:03.635Z,8.88
2022-11-09T22:51:49.639Z,8.13
2022-11-09T22:54:35.337Z,8.68
2022-11-09T22:57:21.277Z,9.13
2022-11-09T23:00:10.878Z,8.23
2022-11-09T23:02:57.720Z,7.63
2022-11-09T23:05:44.280Z,12.55
2022-11-09T23:08:35.323Z,10.52
2022-11-09T23:11:25.144Z,9.40
2022-11-09T23:14:12.416Z,8.98
2022-11-09T23:16:58.164Z,10.60
2022-11-09T23:19:46.055Z,7.95
2022-11-09T23:22:35.263Z,9.05
2022-11-09T23:25:40.341Z,10.15
2022-11-09T23:28:26.538Z,10.68
2022-11-09T23:31:14.499Z,8.95
2022-11-09T23:34:00.468Z,11.05
2022-11-09T23:36:46.822Z,10.07
2022-11-09T23:39:33.018Z,9.57
2022-11-09T23:42:18.940Z,10.05
2022-11-09T23:45:04.954Z,9.30
2022-11-09T23:47:52.929Z,10.45
2022-11-09T23:53:25.888Z,9.32
2022-11-09T23:56:12.729Z,11.93
2022-11-09T23:58:58.931Z,11.27
